Terminal Aerodrome Forecast
Issued by NWS

Home | Current Version | Previous Version | Text Only | Print | Product List | Glossary On
Versions: 1 2 3 4 5 6 7 8 9 10 11 12 13
256
FTUS43 KLSX 061128
TAFUIN
TAF
KUIN 061128Z 0612/0712 15004KT P6SM SKC
     FM061500 23007KT P6SM SKC
     FM070600 22011KT P6SM BKN250=

USA.gov is the U.S. government's official web portal to all federal, state and local government web resources and services.